Portada
METAR-TAF:

METAR-TAF

Aeroports :

Millington, Tennessee, Estats Units d'Amèrica

latitud: 35-21-24N, longitud: 089-52-13W, altitud: 98 m

Observació

L'informe es va fer fa 3 hores i 31 minuts, a les 07:50 UTC
Vent 17 kt del Nord amb ràfegues de 27 kt
Temperatura -3°C
Humitat 80%
Pressió 1030 hPa
Visibilitat: 16.1 km
Cel cobert a una alçada de 2400 ft

METAR: KNQA 120750Z 01017G27KT 10SM OVC024 M03/M06 A3041

Hora: 05:21 (11:21 UTC)


TAF: manca

Observacions i pronòstics meteorològics de més de 4000 aeroports (METAR i TAF).

Les estacions disponibles són els punts grocs i vermells al mapa.

Posi el ratolí al punt desitjat per veure el nom de l'estació.

Feu clic per veure les observacions i els pronòstics meteorològics.

Per canviar el mapa: feu clic els botons verds amb una creu de color negre per apropar; al botó verd amb un guió per allunyar la imatge; o en les fletxes verdes per a mapes adjacents.


METAR-TAF: